createdAt,value
2023-04-01T00:01:49.050Z,100.00
2023-04-01T00:04:52.356Z,100.00
2023-04-01T00:07:56.257Z,100.00
2023-04-01T00:11:00.093Z,100.00
2023-04-01T00:14:03.390Z,100.00
2023-04-01T00:17:07.220Z,100.00
2023-04-01T00:20:11.034Z,100.00
2023-04-01T00:23:16.139Z,100.00
2023-04-01T00:26:22.195Z,100.00
2023-04-01T00:29:30.261Z,100.00
2023-04-01T00:32:33.597Z,100.00
2023-04-01T00:35:37.787Z,100.00
2023-04-01T00:38:42.685Z,100.00
2023-04-01T00:41:46.308Z,100.00
2023-04-01T00:44:54.736Z,100.00
2023-04-01T00:48:03.577Z,100.00
2023-04-01T00:51:10.980Z,100.00
2023-04-01T00:54:15.575Z,100.00
2023-04-01T00:57:38.820Z,100.00
2023-04-01T01:00:43.478Z,100.00
2023-04-01T01:03:46.719Z,100.00
2023-04-01T01:07:08.418Z,100.00
2023-04-01T01:10:11.515Z,100.00
2023-04-01T01:13:30.434Z,100.00
2023-04-01T01:16:41.833Z,100.00
2023-04-01T01:20:02.724Z,100.00
2023-04-01T01:23:38.258Z,100.00
2023-04-01T01:27:04.009Z,100.00
2023-04-01T01:30:13.608Z,100.00
2023-04-01T01:33:35.580Z,100.00
2023-04-01T01:36:43.709Z,100.00
2023-04-01T01:39:52.041Z,100.00
2023-04-01T01:43:00.567Z,100.00
2023-04-01T01:46:10.679Z,100.00
2023-04-01T01:49:16.553Z,100.00
2023-04-01T01:52:20.434Z,100.00
2023-04-01T01:55:31.554Z,100.00
2023-04-01T01:58:44.179Z,100.00
2023-04-01T02:01:52.254Z,100.00
2023-04-01T02:04:56.410Z,100.00
2023-04-01T02:08:09.222Z,100.00
2023-04-01T02:11:21.068Z,100.00
2023-04-01T02:14:29.311Z,100.00
2023-04-01T02:17:35.206Z,100.00
2023-04-01T02:20:41.768Z,100.00
2023-04-01T02:23:46.908Z,100.00
2023-04-01T02:26:52.062Z,100.00
2023-04-01T02:29:55.757Z,100.00
2023-04-01T02:33:00.043Z,98.77
2023-04-01T02:36:03.372Z,95.17
2023-04-01T02:39:08.776Z,95.14
2023-04-01T02:42:12.168Z,95.94
2023-04-01T02:45:16.436Z,91.99
2023-04-01T02:48:19.743Z,94.82
2023-04-01T02:51:24.521Z,93.45
2023-04-01T02:54:28.978Z,91.81
2023-04-01T02:57:32.502Z,93.88
2023-04-01T03:00:35.952Z,92.83
2023-04-01T03:03:39.578Z,96.77
2023-04-01T03:06:42.879Z,98.78
2023-04-01T03:09:46.872Z,99.99
2023-04-01T03:12:49.893Z,100.00
2023-04-01T03:15:54.633Z,100.00
2023-04-01T03:19:00.118Z,100.00
2023-04-01T03:22:03.909Z,100.00
2023-04-01T03:25:08.809Z,100.00
2023-04-01T03:28:13.516Z,100.00
2023-04-01T03:31:17.319Z,100.00
2023-04-01T03:34:21.462Z,100.00
2023-04-01T03:37:25.613Z,95.80
2023-04-01T03:40:29.483Z,95.80
2023-04-01T03:43:33.279Z,95.70
2023-04-01T03:46:38.181Z,94.36
2023-04-01T03:49:41.544Z,95.83
2023-04-01T03:52:45.875Z,91.84
2023-04-01T03:55:52.348Z,92.98
2023-04-01T03:58:56.766Z,92.85
2023-04-01T04:01:59.903Z,90.72
2023-04-01T04:05:03.898Z,91.94
2023-04-01T04:08:07.246Z,92.62
2023-04-01T04:11:10.867Z,92.58
2023-04-01T04:14:16.150Z,91.97
2023-04-01T04:17:20.397Z,91.03
2023-04-01T04:20:23.726Z,93.37
2023-04-01T04:23:28.178Z,94.85
2023-04-01T04:26:31.579Z,95.88
2023-04-01T04:29:35.499Z,97.00
2023-04-01T04:32:38.801Z,97.55
2023-04-01T04:35:42.316Z,98.32
2023-04-01T04:38:46.124Z,98.77
2023-04-01T04:41:50.021Z,99.09
2023-04-01T04:44:54.146Z,99.25
2023-04-01T04:48:00.048Z,100.00
2023-04-01T04:51:04.951Z,100.00
2023-04-01T04:54:10.549Z,100.00
2023-04-01T04:57:16.546Z,99.55
2023-04-01T05:00:20.398Z,98.71
2023-04-01T05:03:23.989Z,97.13
2023-04-01T05:06:30.642Z,96.81
2023-04-01T05:09:35.050Z,96.82
2023-04-01T05:12:40.093Z,96.60
2023-04-01T05:15:43.486Z,95.10
2023-04-01T05:18:48.557Z,95.72
2023-04-01T05:21:52.194Z,95.21
2023-04-01T05:24:56.511Z,94.68
2023-04-01T05:27:59.977Z,96.01
2023-04-01T05:31:05.488Z,95.83
2023-04-01T05:34:09.740Z,97.21
2023-04-01T05:37:13.080Z,97.35
2023-04-01T05:40:16.718Z,97.88
2023-04-01T05:43:20.574Z,97.78
2023-04-01T05:46:25.038Z,96.01
2023-04-01T05:49:29.860Z,97.15
2023-04-01T05:52:33.458Z,97.04
2023-04-01T05:55:37.557Z,95.35
2023-04-01T05:58:41.536Z,95.41
2023-04-01T06:01:45.411Z,89.32
2023-04-01T06:04:49.575Z,88.76
2023-04-01T06:07:59.583Z,89.61
2023-04-01T06:11:12.184Z,87.34
2023-04-01T06:14:32.246Z,83.14
2023-04-01T06:17:58.888Z,78.35
2023-04-01T06:21:22.145Z,79.53
2023-04-01T06:24:32.450Z,79.22
2023-04-01T06:27:50.581Z,76.64
2023-04-01T06:31:12.951Z,77.38
2023-04-01T06:34:47.493Z,74.26
2023-04-01T06:38:09.448Z,75.26
2023-04-01T06:41:31.369Z,75.71
2023-04-01T06:45:05.347Z,74.61
2023-04-01T06:49:12.414Z,74.40
2023-04-01T06:52:31.341Z,76.22
2023-04-01T06:55:52.286Z,74.74
2023-04-01T06:59:13.740Z,75.62
2023-04-01T07:02:31.655Z,73.44
2023-04-01T07:05:37.016Z,74.65
2023-04-01T07:08:45.397Z,73.86
2023-04-01T07:11:48.925Z,73.07
2023-04-01T07:15:03.039Z,73.57
2023-04-01T07:18:52.743Z,72.30
2023-04-01T07:22:12.529Z,73.85
2023-04-01T07:25:21.920Z,71.63
2023-04-01T07:28:32.235Z,70.37
2023-04-01T07:31:49.929Z,68.32
2023-04-01T07:35:12.997Z,68.63
2023-04-01T07:38:25.981Z,68.76
2023-04-01T07:41:52.333Z,68.82
2023-04-01T07:45:02.109Z,67.69
2023-04-01T07:48:16.008Z,67.99
2023-04-01T07:51:48.130Z,67.89
2023-04-01T07:54:59.379Z,68.11
2023-04-01T07:58:50.276Z,66.29
2023-04-01T08:02:14.185Z,67.36
2023-04-01T08:05:34.344Z,66.60
2023-04-01T08:08:47.491Z,66.04
2023-04-01T08:11:59.371Z,67.04
2023-04-01T08:15:14.913Z,67.92
2023-04-01T08:18:54.506Z,66.48
2023-04-01T08:22:05.599Z,67.03
2023-04-01T08:25:17.685Z,65.78
2023-04-01T08:28:59.887Z,66.73
2023-04-01T08:32:33.523Z,64.20
2023-04-01T08:35:58.893Z,65.93
2023-04-01T08:39:20.664Z,65.54
2023-04-01T08:42:34.091Z,65.72
2023-04-01T08:45:41.788Z,67.91
2023-04-01T08:49:04.022Z,66.62
2023-04-01T08:52:13.648Z,67.40
2023-04-01T08:55:16.901Z,66.89
2023-04-01T08:58:39.683Z,66.33
2023-04-01T09:01:57.625Z,67.31
2023-04-01T09:05:32.193Z,63.80
2023-04-01T09:08:44.438Z,62.39
2023-04-01T09:11:56.800Z,64.52
2023-04-01T09:15:29.620Z,62.85
2023-04-01T09:18:45.736Z,62.60
2023-04-01T09:21:57.204Z,62.30
2023-04-01T09:25:13.811Z,61.48
2023-04-01T09:28:29.631Z,61.08
2023-04-01T09:32:11.227Z,62.20
2023-04-01T09:35:23.680Z,62.25
2023-04-01T09:38:38.393Z,63.53
2023-04-01T09:42:17.128Z,63.03
2023-04-01T09:45:39.025Z,61.38
2023-04-01T09:48:44.868Z,62.57
2023-04-01T09:52:13.567Z,63.73
2023-04-01T09:55:35.584Z,65.11
2023-04-01T09:58:43.593Z,65.27
2023-04-01T10:02:21.224Z,66.15
2023-04-01T10:05:30.429Z,64.87
2023-04-01T10:09:02.039Z,65.53
2023-04-01T10:12:27.206Z,67.45
2023-04-01T10:15:48.771Z,68.47
2023-04-01T10:19:30.329Z,68.60
2023-04-01T10:22:56.395Z,70.24
2023-04-01T10:26:38.367Z,69.62
2023-04-01T10:30:08.124Z,69.93
2023-04-01T10:33:21.488Z,70.29
2023-04-01T10:36:43.380Z,70.28
2023-04-01T10:40:02.456Z,69.75
2023-04-01T10:43:34.312Z,69.01
2023-04-01T10:47:03.989Z,69.45
2023-04-01T10:51:02.650Z,68.67
2023-04-01T10:54:18.265Z,70.54
2023-04-01T10:57:44.943Z,69.90
2023-04-01T11:00:58.854Z,68.57
2023-04-01T11:04:08.354Z,67.76
2023-04-01T11:07:32.004Z,66.41
2023-04-01T11:10:41.923Z,67.97
2023-04-01T11:14:00.361Z,65.52
2023-04-01T11:17:09.534Z,64.60
2023-04-01T11:20:46.831Z,64.81
2023-04-01T11:24:14.493Z,64.00
2023-04-01T11:27:51.453Z,64.94
2023-04-01T11:31:00.922Z,65.57
2023-04-01T11:34:11.485Z,62.97
2023-04-01T11:37:32.609Z,63.23
2023-04-01T11:40:55.839Z,63.51
2023-04-01T11:44:21.164Z,61.55
2023-04-01T11:47:52.600Z,61.96
2023-04-01T11:51:28.932Z,62.51
2023-04-01T11:55:17.955Z,63.77
2023-04-01T11:58:32.997Z,64.33
2023-04-01T12:01:57.776Z,64.24
2023-04-01T12:05:19.433Z,62.41
2023-04-01T12:08:39.768Z,60.70
2023-04-01T12:11:57.713Z,58.17
2023-04-01T12:15:16.066Z,56.89
2023-04-01T12:18:29.238Z,55.87
2023-04-01T12:21:44.857Z,53.50
2023-04-01T12:25:07.648Z,55.23
2023-04-01T12:28:21.370Z,54.73
2023-04-01T12:32:15.706Z,56.21
2023-04-01T12:35:49.702Z,54.27
2023-04-01T12:39:48.479Z,56.17
2023-04-01T12:43:03.474Z,57.04
2023-04-01T12:46:28.410Z,57.66
2023-04-01T12:49:57.969Z,54.41
2023-04-01T12:53:15.299Z,54.15
2023-04-01T12:56:29.356Z,55.19
2023-04-01T12:59:55.578Z,50.37
2023-04-01T13:03:10.603Z,52.40
2023-04-01T13:06:52.651Z,50.42
2023-04-01T13:10:05.184Z,50.69
2023-04-01T13:13:53.444Z,49.92
2023-04-01T13:16:59.803Z,52.27
2023-04-01T13:20:31.949Z,52.69
2023-04-01T13:23:38.010Z,50.28
2023-04-01T13:27:06.073Z,53.00
2023-04-01T13:30:32.230Z,51.27
2023-04-01T13:34:01.349Z,52.60
2023-04-01T13:37:04.405Z,53.91
2023-04-01T13:40:26.448Z,52.74
2023-04-01T13:43:38.531Z,53.14
2023-04-01T13:46:51.432Z,51.49
2023-04-01T13:50:21.671Z,51.16
2023-04-01T13:53:46.545Z,52.00
2023-04-01T13:57:24.005Z,51.76
2023-04-01T14:00:46.151Z,50.08
2023-04-01T14:04:10.871Z,50.69
2023-04-01T14:07:40.139Z,49.75
2023-04-01T14:11:05.768Z,52.68
2023-04-01T14:14:28.834Z,52.91
2023-04-01T14:18:06.486Z,52.27
2023-04-01T14:21:15.676Z,54.08
2023-04-01T14:24:30.265Z,53.81
2023-04-01T14:27:45.675Z,52.64
2023-04-01T14:31:21.797Z,52.29
2023-04-01T14:35:01.409Z,52.23
2023-04-01T14:38:14.028Z,51.41
2023-04-01T14:41:39.695Z,51.61
2023-04-01T14:44:54.350Z,51.82
2023-04-01T14:48:00.321Z,51.41
2023-04-01T14:51:31.023Z,48.04
2023-04-01T14:54:39.297Z,49.48
2023-04-01T14:57:43.140Z,52.46
2023-04-01T15:00:51.687Z,55.39
2023-04-01T15:04:42.541Z,58.66
2023-04-01T15:07:58.594Z,59.52
2023-04-01T15:11:28.368Z,59.96
2023-04-01T15:14:48.120Z,60.55
2023-04-01T15:18:06.837Z,60.70
2023-04-01T15:21:44.448Z,60.83
2023-04-01T15:25:18.659Z,60.33
2023-04-01T15:28:24.912Z,61.67
2023-04-01T15:31:36.466Z,62.23
2023-04-01T15:35:21.590Z,61.93
2023-04-01T15:38:33.202Z,62.17
2023-04-01T15:42:15.512Z,62.32
2023-04-01T15:45:36.427Z,61.42
2023-04-01T15:49:10.788Z,62.46
2023-04-01T15:52:26.155Z,62.91
2023-04-01T15:55:55.109Z,62.89
2023-04-01T15:59:01.541Z,63.65
2023-04-01T16:02:13.742Z,63.44
2023-04-01T16:05:26.329Z,63.37
2023-04-01T16:09:03.970Z,63.20
2023-04-01T16:12:18.997Z,63.77
2023-04-01T16:15:44.260Z,63.61
2023-04-01T16:19:22.908Z,63.10
2023-04-01T16:22:51.447Z,62.77
2023-04-01T16:26:07.003Z,63.02
2023-04-01T16:29:24.745Z,62.46
2023-04-01T16:32:51.968Z,62.62
2023-04-01T16:36:39.393Z,62.71
2023-04-01T16:40:02.841Z,62.29
2023-04-01T16:43:17.476Z,62.35
2023-04-01T16:46:37.836Z,61.99
2023-04-01T16:49:54.709Z,63.84
2023-04-01T16:53:10.067Z,62.99
2023-04-01T16:56:30.169Z,63.20
2023-04-01T16:59:47.739Z,65.46
2023-04-01T17:02:58.411Z,65.62
2023-04-01T17:06:12.808Z,66.11
2023-04-01T17:09:29.466Z,67.64
2023-04-01T17:12:44.153Z,67.20
2023-04-01T17:16:18.425Z,67.64
2023-04-01T17:19:37.973Z,68.89
2023-04-01T17:22:46.297Z,69.98
2023-04-01T17:26:23.742Z,69.78
2023-04-01T17:29:45.568Z,70.78
2023-04-01T17:33:08.488Z,71.01
2023-04-01T17:36:17.633Z,70.41
2023-04-01T17:39:47.261Z,69.80
2023-04-01T17:43:23.125Z,70.52
2023-04-01T17:46:45.991Z,69.53
2023-04-01T17:50:18.285Z,70.65
2023-04-01T17:54:04.344Z,71.94
2023-04-01T17:57:33.138Z,72.97
2023-04-01T18:01:26.973Z,74.04
2023-04-01T18:04:34.355Z,74.89
2023-04-01T18:08:10.676Z,76.14
2023-04-01T18:11:28.107Z,76.99
2023-04-01T18:14:46.320Z,76.77
2023-04-01T18:18:17.947Z,77.76
2023-04-01T18:21:34.215Z,78.83
2023-04-01T18:24:47.325Z,79.44
2023-04-01T18:28:24.573Z,79.92
2023-04-01T18:31:41.336Z,79.96
2023-04-01T18:34:58.897Z,80.69
2023-04-01T18:38:14.913Z,80.77
2023-04-01T18:41:37.177Z,81.73
2023-04-01T18:45:05.493Z,81.31
2023-04-01T18:48:34.960Z,82.87
2023-04-01T18:51:48.803Z,81.83
2023-04-01T18:55:05.010Z,82.21
2023-04-01T18:58:16.989Z,82.28
2023-04-01T19:01:45.397Z,81.00
2023-04-01T19:05:20.146Z,80.59
2023-04-01T19:08:35.530Z,79.40
2023-04-01T19:12:05.250Z,78.94
2023-04-01T19:15:27.057Z,79.24
2023-04-01T19:18:57.121Z,80.14
2023-04-01T19:22:30.911Z,78.31
2023-04-01T19:25:57.189Z,77.52
2023-04-01T19:29:26.786Z,77.17
2023-04-01T19:32:49.819Z,76.98
2023-04-01T19:36:18.421Z,78.71
2023-04-01T19:40:20.902Z,79.17
2023-04-01T19:43:37.022Z,80.64
2023-04-01T19:46:51.708Z,81.49
2023-04-01T19:50:07.800Z,82.89
2023-04-01T19:53:46.562Z,84.04
2023-04-01T19:57:12.901Z,85.95
2023-04-01T20:00:36.723Z,86.85
2023-04-01T20:03:49.932Z,87.74
2023-04-01T20:07:08.764Z,88.20
2023-04-01T20:10:28.434Z,88.54
2023-04-01T20:13:50.417Z,89.30
2023-04-01T20:17:02.770Z,90.19
2023-04-01T20:20:10.986Z,90.54
2023-04-01T20:23:33.944Z,91.64
2023-04-01T20:26:43.038Z,91.86
2023-04-01T20:30:05.834Z,92.09
2023-04-01T20:33:42.149Z,90.46
2023-04-01T20:37:12.008Z,89.48
2023-04-01T20:40:44.384Z,88.93
2023-04-01T20:43:55.508Z,88.31
2023-04-01T20:47:15.535Z,89.04
2023-04-01T20:50:50.970Z,88.67
2023-04-01T20:54:07.032Z,89.98
2023-04-01T20:57:33.238Z,90.92
2023-04-01T21:01:10.740Z,90.56
2023-04-01T21:04:39.453Z,91.25
2023-04-01T21:07:50.903Z,91.69
2023-04-01T21:11:15.849Z,92.30
2023-04-01T21:14:32.752Z,93.52
2023-04-01T21:17:39.190Z,94.23
2023-04-01T21:20:58.266Z,94.63
2023-04-01T21:24:31.213Z,95.34
2023-04-01T21:27:37.212Z,96.40
2023-04-01T21:30:46.982Z,97.11
2023-04-01T21:34:19.723Z,97.29
2023-04-01T21:37:50.072Z,98.69
2023-04-01T21:41:02.967Z,99.48
2023-04-01T21:44:50.059Z,100.00
2023-04-01T21:48:28.662Z,100.00
2023-04-01T21:52:20.684Z,100.00
2023-04-01T21:55:42.906Z,100.00
2023-04-01T21:59:17.955Z,100.00
2023-04-01T22:02:43.674Z,100.00
2023-04-01T22:06:13.459Z,100.00
2023-04-01T22:09:26.738Z,100.00
2023-04-01T22:12:46.012Z,100.00
2023-04-01T22:15:58.666Z,100.00
2023-04-01T22:19:43.217Z,100.00
2023-04-01T22:23:07.344Z,100.00
2023-04-01T22:26:33.517Z,100.00
2023-04-01T22:29:54.359Z,100.00
2023-04-01T22:33:06.762Z,100.00
2023-04-01T22:36:19.075Z,100.00
2023-04-01T22:39:37.740Z,100.00
2023-04-01T22:42:49.677Z,100.00
2023-04-01T22:45:56.913Z,100.00
2023-04-01T22:49:18.726Z,100.00
2023-04-01T22:52:42.887Z,100.00
2023-04-01T22:55:53.445Z,100.00
2023-04-01T22:59:43.172Z,100.00
2023-04-01T23:03:09.150Z,100.00
2023-04-01T23:06:42.440Z,100.00
2023-04-01T23:09:45.743Z,100.00
2023-04-01T23:12:52.832Z,100.00
2023-04-01T23:15:56.820Z,100.00
2023-04-01T23:19:14.705Z,100.00
2023-04-01T23:22:31.522Z,100.00
2023-04-01T23:25:43.694Z,100.00
2023-04-01T23:28:51.235Z,100.00
2023-04-01T23:32:05.716Z,100.00
2023-04-01T23:35:18.071Z,100.00
2023-04-01T23:38:24.302Z,100.00
2023-04-01T23:41:31.768Z,100.00
2023-04-01T23:44:37.690Z,100.00
2023-04-01T23:47:42.315Z,100.00
2023-04-01T23:50:47.263Z,100.00
2023-04-01T23:54:04.063Z,100.00
2023-04-01T23:57:14.761Z,100.00
